Neah Bay, WA (98357)

01:46 PM PDT on Mars 29, 2015 (GMT -0700)
Hoko | | Change Station
CLOSE
Current Station
Personal Weather Stations
Location: Sekiu, WA
Elevation: 56 ft
Nearby Weather Stations

Elev 56 ft 48.29 °N, 124.36 °W | Updated 1 minute ago

Regn
Regn
51.6 °F
Feels Like 51.6 °F
N
3.8
Vind Växlande Vind from NV
Gusts 5.4 miles/tim

Idag
High -- | Low -- °F
--% Chance of Precip.
Yesterday
High -- | Low -- °F
Precip. -- tum
7:02 AM 7:44 PM
Andra kvarteret, 74% visible
Lufttryck 30.18 tum
Sikt 0.8 miles
Molnigt Molnigt 500 ft
Daggpunkt 50 °F
Luftfuktighet 93%
Rainfall 0.56 tum
Snow Depth Not available.
UV 2 out of 12
Pollen 6.80 out of 12
Air Quality Not available.
Flu Activity Not available.
METAR KUIL 291953Z AUTO 19009KT 3/4SM RA BR OVC005 11/11 A3018 RMK AO2 SLP219 P0027 T01110111

More Conditions Fewer Conditions

Lufttryck 30.18 tum
Sikt 0.8 miles
Molnigt Molnigt 500 ft
Daggpunkt 50 °F
Luftfuktighet 93%
Rainfall 0.56 tum
Snow Depth Not available.
UV 2 out of 12
Pollen 6.80 out of 12
Air Quality Not available.
Flu Activity Not available.
METAR KUIL 291953Z AUTO 19009KT 3/4SM RA BR OVC005 11/11 A3018 RMK AO2 SLP219 P0027 T01110111

More Conditions Fewer Conditions

10-Day Weather Forecast

Almanac

Astronomi

Mar. 29, 2015 Rise Set
Actual Time
Civil Twilight
Nautical Twilight
Astronomical Twilight
Månen
Length Of Visible Light
Dagens längd
Tomorrow will be .
, % of the Moon is Illuminated

Today's Extremes

State Highs State Lows

Community

WunderPhotos

Upload Photos

1,809,347 photos uploaded!

WunderBlogs® & News

Nearby

Air Quality

  Air Quality AQ Index Pollutant
Not available.

Snödjup

Station Depth Elevation

Earthquake Activity

Stad Distance Mag. Time & Date
Minimum magnitude displayed is 2.5.

Coastal Water Temperatures

Plats Temperatur

Stations

Nearby Weather Stations

Station Location Temp Vindavkylning Daggpunkt Luftfuktighet Vind Precip. Elev Uppdaterad Type